Kezdőlap
METAR-TAF:

METAR-TAF

Repülőterek :

Gibraltári repülőtér

Gibraltár, Gibraltár

földrajzi szélesség: 36-09N, földrajzi hosszúság: 005-21W, magasság: 5 m

Jelenlegi meteorológiai megfigyelések

A jelentés 32 perccel ezelõtt készült, 15:50 UTC
Kelet-délkeleti szél 5 kt
Hőmérséklet 28°C
Páratartalom 48%
Légköri nyomás 1014 hPa
Látótávolság 10 km, vagy több
felhőtlen 1500 m magasságban, és nincs gomolyfelhõ

METAR: LXGB 181550Z 11005KT CAVOK 28/16 Q1014 NOSIG

Idő: 18:22 (16:22 UTC)

Előrejelzés

A jelentés 2 órával és 27 perccel ezelõtt készült, 13:55 UTC
Az előrejelzés 18-én 15 óra UTC és 18-én 22 óra UTC között érvényes
Különbözõ irányokból fújó szél 6 kt
Látótávolság 10 km, vagy több
felhőtlen 1500 m magasságban, és nincs gomolyfelhõ
Valószínűség 40% :
18-én 15 óra UTC és 18-én 19 óra UTC között ideiglenes
Déli szél 12 kt

TAF: LXGB 181355Z 1815/1822 VRB06KT CAVOK PROB40 TEMPO 1815/1819 18012KT 520001

Meteorológiai megfigyelések és előrejelzések több, mint 4000 repülőtéren (METAR és TAF jelentéseket).

A térképen piros és sárga pontok jelzik az elérhető meteorológiai állomásokat.

Mozgassa az egeret a pont fölött, hogy megjelenjen az állomás neve.

Azután kattintson az időjárási megfigyelések és előrejelzések megtekintéséhez.

A térkép megváltoztatása: kattintson a fekete keresztel jelölt zöld gombra ráközelítéshez, a vonallal jelölt zöld gombra távolításhoz, vagy a zöld nyilakra a szomszédos térképek eléréséhez.


METAR-TAF: